createdAt,value
2018-09-30T00:01:49.031Z,2.80
2018-09-30T00:04:17.716Z,2.33
2018-09-30T00:06:46.304Z,1.77
2018-09-30T00:09:14.636Z,1.90
2018-09-30T00:11:43.383Z,3.17
2018-09-30T00:14:11.697Z,2.67
2018-09-30T00:16:39.940Z,2.47
2018-09-30T00:19:08.610Z,2.35
2018-09-30T00:21:36.910Z,1.87
2018-09-30T00:24:10.903Z,2.30
2018-09-30T00:26:44.637Z,2.77
2018-09-30T00:29:13.714Z,2.25
2018-09-30T00:31:41.941Z,2.42
2018-09-30T00:34:15.983Z,2.75
2018-09-30T00:36:44.307Z,2.00
2018-09-30T00:39:12.551Z,3.02
2018-09-30T00:41:41.122Z,2.55
2018-09-30T00:44:09.598Z,1.80
2018-09-30T00:46:37.852Z,3.10
2018-09-30T00:49:06.685Z,1.90
2018-09-30T00:51:35.083Z,2.47
2018-09-30T00:54:03.678Z,1.42
2018-09-30T00:56:32.081Z,2.37
2018-09-30T00:59:00.415Z,2.08
2018-09-30T01:01:28.683Z,1.55
2018-09-30T01:03:57.572Z,2.27
2018-09-30T01:06:25.798Z,2.05
2018-09-30T01:08:54.554Z,2.70
2018-09-30T01:11:23.627Z,1.95
2018-09-30T01:13:51.870Z,2.70
2018-09-30T01:16:20.169Z,1.20
2018-09-30T01:18:48.447Z,2.27
2018-09-30T01:21:16.693Z,2.92
2018-09-30T01:23:44.922Z,1.12
2018-09-30T01:26:13.837Z,1.80
2018-09-30T01:28:42.090Z,1.20
2018-09-30T01:31:10.406Z,1.85
2018-09-30T01:33:39.129Z,2.35
2018-09-30T01:36:07.454Z,2.90
2018-09-30T01:38:35.669Z,2.17
2018-09-30T01:41:04.378Z,1.40
2018-09-30T01:43:32.741Z,2.27
2018-09-30T01:46:01.219Z,1.98
2018-09-30T01:48:30.737Z,1.25
2018-09-30T01:50:59.005Z,2.50
2018-09-30T01:53:27.322Z,1.40
2018-09-30T01:55:55.945Z,1.30
2018-09-30T01:58:24.270Z,1.72
2018-09-30T02:00:52.494Z,1.40
2018-09-30T02:03:24.830Z,1.30
2018-09-30T02:05:53.138Z,1.10
2018-09-30T02:08:21.367Z,1.87
2018-09-30T02:10:50.143Z,1.87
2018-09-30T02:13:18.566Z,1.25
2018-09-30T02:15:46.902Z,2.30
2018-09-30T02:18:15.691Z,2.10
2018-09-30T02:20:43.949Z,1.02
2018-09-30T02:23:12.202Z,1.20
2018-09-30T02:25:40.928Z,1.27
2018-09-30T02:28:09.317Z,1.85
2018-09-30T02:30:37.551Z,2.77
2018-09-30T02:33:06.178Z,1.00
2018-09-30T02:35:34.482Z,2.00
2018-09-30T02:38:02.820Z,1.20
2018-09-30T02:40:31.829Z,1.10
2018-09-30T02:43:00.053Z,1.00
2018-09-30T02:45:28.307Z,1.00
2018-09-30T02:47:56.647Z,1.17
2018-09-30T02:50:24.885Z,2.02
2018-09-30T02:52:53.115Z,1.35
2018-09-30T02:55:21.685Z,2.72
2018-09-30T02:57:49.936Z,1.47
2018-09-30T03:00:18.162Z,1.27
2018-09-30T03:02:47.137Z,2.20
2018-09-30T03:05:15.398Z,1.12
2018-09-30T03:07:49.082Z,0.98
2018-09-30T03:10:17.397Z,1.52
2018-09-30T03:12:46.171Z,1.00
2018-09-30T03:15:14.462Z,1.40
2018-09-30T03:17:42.701Z,1.37
2018-09-30T03:20:10.956Z,1.30
2018-09-30T03:22:39.807Z,1.42
2018-09-30T03:25:08.058Z,1.10
2018-09-30T03:27:36.282Z,0.80
2018-09-30T03:30:04.727Z,1.22
2018-09-30T03:32:32.971Z,1.98
2018-09-30T03:35:01.195Z,1.70
2018-09-30T03:37:29.459Z,0.93
2018-09-30T03:39:57.759Z,0.65
2018-09-30T03:42:26.002Z,1.42
2018-09-30T03:44:55.066Z,1.12
2018-09-30T03:47:23.394Z,1.40
2018-09-30T03:49:51.699Z,1.10
2018-09-30T03:52:20.041Z,1.62
2018-09-30T03:54:48.274Z,1.40
2018-09-30T03:57:16.518Z,0.90
2018-09-30T03:59:45.486Z,1.10
2018-09-30T04:02:13.734Z,1.17
2018-09-30T04:04:42.034Z,2.72
2018-09-30T04:07:10.730Z,1.57
2018-09-30T04:09:39.009Z,0.95
2018-09-30T04:12:07.314Z,1.87
2018-09-30T04:14:36.613Z,0.93
2018-09-30T04:17:05.107Z,2.00
2018-09-30T04:19:33.282Z,1.00
2018-09-30T04:22:01.996Z,0.93
2018-09-30T04:24:30.241Z,1.12
2018-09-30T04:26:58.473Z,0.93
2018-09-30T04:29:26.750Z,0.90
2018-09-30T04:31:55.001Z,1.42
2018-09-30T04:34:23.251Z,1.15
2018-09-30T04:36:51.598Z,0.75
2018-09-30T04:39:19.828Z,0.70
2018-09-30T04:41:48.063Z,1.20
2018-09-30T04:44:16.658Z,1.12
2018-09-30T04:46:44.965Z,0.90
2018-09-30T04:49:13.190Z,1.17
2018-09-30T04:51:42.073Z,0.82
2018-09-30T04:54:10.315Z,0.90
2018-09-30T04:56:38.625Z,1.10
2018-09-30T04:59:07.315Z,0.78
2018-09-30T05:01:35.554Z,1.17
2018-09-30T05:04:05.493Z,1.20
2018-09-30T05:06:34.077Z,0.93
2018-09-30T05:09:02.323Z,0.93
2018-09-30T05:11:30.582Z,1.20
2018-09-30T05:13:59.114Z,0.80
2018-09-30T05:16:27.589Z,0.62
2018-09-30T05:18:55.898Z,0.70
2018-09-30T05:21:24.459Z,1.07
2018-09-30T05:23:52.712Z,1.65
2018-09-30T05:26:20.970Z,1.55
2018-09-30T05:28:49.234Z,1.00
2018-09-30T05:31:17.593Z,2.08
2018-09-30T05:33:45.750Z,1.65
2018-09-30T05:36:14.434Z,0.65
2018-09-30T05:38:42.672Z,1.82
2018-09-30T05:41:10.990Z,0.80
2018-09-30T05:43:39.574Z,0.85
2018-09-30T05:46:07.844Z,1.80
2018-09-30T05:48:36.113Z,0.93
2018-09-30T05:51:04.584Z,1.15
2018-09-30T05:53:32.821Z,1.75
2018-09-30T05:56:01.066Z,1.02
2018-09-30T05:58:29.738Z,1.27
2018-09-30T06:00:58.046Z,2.80
2018-09-30T06:03:26.311Z,1.62
2018-09-30T06:05:55.835Z,2.25
2018-09-30T06:08:24.081Z,1.00
2018-09-30T06:10:52.318Z,6.40
2018-09-30T06:13:20.835Z,1.37
2018-09-30T06:15:49.104Z,2.95
2018-09-30T06:18:18.162Z,1.07
2018-09-30T06:20:46.893Z,2.50
2018-09-30T06:23:15.208Z,2.92
2018-09-30T06:25:43.455Z,1.75
2018-09-30T06:28:12.532Z,1.52
2018-09-30T06:30:40.846Z,3.17
2018-09-30T06:33:09.071Z,3.50
2018-09-30T06:35:37.782Z,2.85
2018-09-30T06:38:06.101Z,1.47
2018-09-30T06:40:34.408Z,1.67
2018-09-30T06:43:03.019Z,3.85
2018-09-30T06:45:31.474Z,1.45
2018-09-30T06:48:00.041Z,2.50
2018-09-30T06:50:29.351Z,3.15
2018-09-30T06:52:57.535Z,4.35
2018-09-30T06:55:25.804Z,2.62
2018-09-30T06:57:54.730Z,2.17
2018-09-30T07:00:22.955Z,6.40
2018-09-30T07:02:51.198Z,2.98
2018-09-30T07:05:20.517Z,4.08
2018-09-30T07:07:48.958Z,2.65
2018-09-30T07:10:17.292Z,3.45
2018-09-30T07:12:45.830Z,3.77
2018-09-30T07:15:14.069Z,2.75
2018-09-30T07:17:42.523Z,3.60
2018-09-30T07:20:11.986Z,3.30
2018-09-30T07:22:40.392Z,4.12
2018-09-30T07:25:08.699Z,3.58
2018-09-30T07:27:37.326Z,5.75
2018-09-30T07:30:05.739Z,7.72
2018-09-30T07:32:34.055Z,3.52
2018-09-30T07:35:02.466Z,4.22
2018-09-30T07:37:30.824Z,3.55
2018-09-30T07:39:59.078Z,6.35
2018-09-30T07:42:27.619Z,14.60
2018-09-30T07:44:55.850Z,8.93
2018-09-30T07:47:24.105Z,6.58
2018-09-30T07:49:52.941Z,8.45
2018-09-30T07:52:21.308Z,5.80
2018-09-30T07:54:49.618Z,12.65
2018-09-30T07:57:17.911Z,10.23
2018-09-30T07:59:46.161Z,7.87
2018-09-30T08:02:14.434Z,10.98
2018-09-30T08:04:44.661Z,10.15
2018-09-30T08:07:13.126Z,7.30
2018-09-30T08:09:41.390Z,11.35
2018-09-30T08:12:09.691Z,9.63
2018-09-30T08:14:37.979Z,9.80
2018-09-30T08:17:07.062Z,7.25
2018-09-30T08:19:35.321Z,7.28
2018-09-30T08:22:03.684Z,8.38
2018-09-30T08:24:32.676Z,9.78
2018-09-30T08:27:01.047Z,8.63
2018-09-30T08:29:29.491Z,5.12
2018-09-30T08:31:58.075Z,13.20
2018-09-30T08:34:26.514Z,8.08
2018-09-30T08:36:54.858Z,16.02
2018-09-30T08:39:23.988Z,7.72
2018-09-30T08:41:52.175Z,9.28
2018-09-30T08:44:20.528Z,12.55
2018-09-30T08:46:49.883Z,7.50
2018-09-30T08:49:18.207Z,18.45
2018-09-30T08:51:46.410Z,14.45
2018-09-30T08:54:15.219Z,13.00
2018-09-30T08:56:43.528Z,7.65
2018-09-30T08:59:11.891Z,6.55
2018-09-30T09:01:41.896Z,13.08
2018-09-30T09:04:10.238Z,9.05
2018-09-30T09:06:39.174Z,14.63
2018-09-30T09:09:11.947Z,10.08
2018-09-30T09:11:40.317Z,7.75
2018-09-30T09:14:08.682Z,7.15
2018-09-30T09:16:37.291Z,5.65
2018-09-30T09:19:05.613Z,7.83
2018-09-30T09:21:33.942Z,12.28
2018-09-30T09:24:02.227Z,8.80
2018-09-30T09:26:30.554Z,6.30
2018-09-30T09:28:58.785Z,6.42
2018-09-30T09:31:28.080Z,8.00
2018-09-30T09:33:56.420Z,4.87
2018-09-30T09:36:24.739Z,9.58
2018-09-30T09:38:53.322Z,5.58
2018-09-30T09:41:21.596Z,6.85
2018-09-30T09:43:49.830Z,4.30
2018-09-30T09:46:18.554Z,8.33
2018-09-30T09:48:46.927Z,5.62
2018-09-30T09:51:15.162Z,4.72
2018-09-30T09:53:43.898Z,5.47
2018-09-30T09:56:12.210Z,4.65
2018-09-30T09:58:40.543Z,4.35
2018-09-30T10:01:09.442Z,4.10
2018-09-30T10:03:37.844Z,4.78
2018-09-30T10:06:06.137Z,4.40
2018-09-30T10:08:36.559Z,5.30
2018-09-30T10:11:04.825Z,3.47
2018-09-30T10:13:33.049Z,5.35
2018-09-30T10:16:01.471Z,5.17
2018-09-30T10:18:29.691Z,6.45
2018-09-30T10:20:58.015Z,5.83
2018-09-30T10:23:26.400Z,1.85
2018-09-30T10:25:54.711Z,4.35
2018-09-30T10:28:23.034Z,6.10
2018-09-30T10:30:51.833Z,5.53
2018-09-30T10:33:20.274Z,2.62
2018-09-30T10:35:48.522Z,3.60
2018-09-30T10:38:17.233Z,3.95
2018-09-30T10:40:45.453Z,4.60
2018-09-30T10:43:13.787Z,3.77
2018-09-30T10:45:42.622Z,5.40
2018-09-30T10:48:10.890Z,11.05
2018-09-30T10:50:39.146Z,4.95
2018-09-30T10:53:07.966Z,12.63
2018-09-30T10:55:36.206Z,7.42
2018-09-30T10:58:04.471Z,14.80
2018-09-30T11:00:33.158Z,5.22
2018-09-30T11:03:01.466Z,6.45
2018-09-30T11:05:31.511Z,7.17
2018-09-30T11:08:00.006Z,6.28
2018-09-30T11:10:28.665Z,7.55
2018-09-30T11:12:57.038Z,5.85
2018-09-30T11:15:25.300Z,8.85
2018-09-30T11:17:53.558Z,5.55
2018-09-30T11:20:21.942Z,5.40
2018-09-30T11:22:50.259Z,4.42
2018-09-30T11:25:18.703Z,5.80
2018-09-30T11:27:48.043Z,4.87
2018-09-30T11:30:16.324Z,7.87
2018-09-30T11:32:44.655Z,5.40
2018-09-30T11:35:13.482Z,4.55
2018-09-30T11:37:41.852Z,6.72
2018-09-30T11:40:10.206Z,6.78
2018-09-30T11:42:38.670Z,6.22
2018-09-30T11:45:07.078Z,5.33
2018-09-30T11:47:35.486Z,5.92
2018-09-30T11:50:03.798Z,5.22
2018-09-30T11:52:32.089Z,7.03
2018-09-30T11:55:00.403Z,4.80
2018-09-30T11:57:28.708Z,7.17
2018-09-30T11:59:56.958Z,4.00
2018-09-30T12:02:25.300Z,3.92
2018-09-30T12:04:54.034Z,5.35
2018-09-30T12:07:22.292Z,4.15
2018-09-30T12:09:50.618Z,4.40
2018-09-30T12:12:19.791Z,3.02
2018-09-30T12:14:48.115Z,2.15
2018-09-30T12:17:16.351Z,3.20
2018-09-30T12:19:44.934Z,2.40
2018-09-30T12:22:13.679Z,5.40
2018-09-30T12:24:41.953Z,4.05
2018-09-30T12:27:10.935Z,6.17
2018-09-30T12:29:39.283Z,3.47
2018-09-30T12:32:07.530Z,5.40
2018-09-30T12:34:36.223Z,5.00
2018-09-30T12:37:04.512Z,4.55
2018-09-30T12:39:32.751Z,3.65
2018-09-30T12:42:01.275Z,3.77
2018-09-30T12:44:29.514Z,5.95
2018-09-30T12:46:57.787Z,4.03
2018-09-30T12:49:26.698Z,4.10
2018-09-30T12:51:54.983Z,6.15
2018-09-30T12:54:23.239Z,5.55
2018-09-30T12:56:52.052Z,6.35
2018-09-30T12:59:20.395Z,11.75
2018-09-30T13:01:48.804Z,12.43
2018-09-30T13:04:17.489Z,10.65
2018-09-30T13:06:45.762Z,7.25
2018-09-30T13:09:14.110Z,9.48
2018-09-30T13:11:42.731Z,13.13
2018-09-30T13:14:11.627Z,11.25
2018-09-30T13:16:39.880Z,18.70
2018-09-30T13:19:08.894Z,10.45
2018-09-30T13:21:37.163Z,10.88
2018-09-30T13:24:05.429Z,8.25
2018-09-30T13:26:34.390Z,5.65
2018-09-30T13:29:02.727Z,7.20
2018-09-30T13:31:30.978Z,4.80
2018-09-30T13:34:01.278Z,10.75
2018-09-30T13:36:30.319Z,17.98
2018-09-30T13:38:58.663Z,22.93
2018-09-30T13:41:27.481Z,17.50
2018-09-30T13:43:55.848Z,14.98
2018-09-30T13:46:24.148Z,14.23
2018-09-30T13:48:53.545Z,18.50
2018-09-30T13:51:21.900Z,20.40
2018-09-30T13:53:50.107Z,18.35
2018-09-30T13:56:18.890Z,22.22
2018-09-30T13:58:47.143Z,21.00
2018-09-30T14:01:15.473Z,23.12
2018-09-30T14:03:45.982Z,24.52
2018-09-30T14:06:14.238Z,18.98
2018-09-30T14:08:42.495Z,20.20
2018-09-30T14:11:11.010Z,16.70
2018-09-30T14:13:39.461Z,12.47
2018-09-30T14:16:07.908Z,14.70
2018-09-30T14:18:36.655Z,19.30
2018-09-30T14:21:05.107Z,19.25
2018-09-30T14:23:33.419Z,16.15
2018-09-30T14:26:01.924Z,19.62
2018-09-30T14:28:30.251Z,15.03
2018-09-30T14:30:58.661Z,23.83
2018-09-30T14:33:27.243Z,17.77
2018-09-30T14:35:55.619Z,21.20
2018-09-30T14:38:23.951Z,28.52
2018-09-30T14:40:52.466Z,20.85
2018-09-30T14:43:20.731Z,19.87
2018-09-30T14:45:49.231Z,30.70
2018-09-30T14:48:17.632Z,27.13
2018-09-30T14:50:45.823Z,27.27
2018-09-30T14:53:14.135Z,26.85
2018-09-30T14:55:42.752Z,26.73
2018-09-30T14:58:11.077Z,19.60
2018-09-30T15:00:39.354Z,20.75
2018-09-30T15:03:07.650Z,30.35
2018-09-30T15:05:35.900Z,23.10
2018-09-30T15:08:04.460Z,24.47
2018-09-30T15:10:33.123Z,24.45
2018-09-30T15:13:01.399Z,22.98
2018-09-30T15:15:30.802Z,16.95
2018-09-30T15:18:00.215Z,24.50
2018-09-30T15:20:28.450Z,23.87
2018-09-30T15:22:56.861Z,22.98
2018-09-30T15:25:25.247Z,28.62
2018-09-30T15:27:53.655Z,27.93
2018-09-30T15:30:21.915Z,23.67
2018-09-30T15:32:50.593Z,31.37
2018-09-30T15:35:18.916Z,31.55
2018-09-30T15:37:47.266Z,33.28
2018-09-30T15:40:15.723Z,34.98
2018-09-30T15:42:44.092Z,24.43
2018-09-30T15:45:12.399Z,35.25
2018-09-30T15:47:43.539Z,23.07
2018-09-30T15:50:11.782Z,24.52
2018-09-30T15:52:40.134Z,27.02
2018-09-30T15:55:08.674Z,29.48
2018-09-30T15:57:36.921Z,37.20
2018-09-30T16:00:05.207Z,33.48
2018-09-30T16:02:33.703Z,38.55
2018-09-30T16:05:01.959Z,33.23
2018-09-30T16:07:30.227Z,38.30
2018-09-30T16:09:58.948Z,24.57
2018-09-30T16:12:27.227Z,27.05
2018-09-30T16:14:55.600Z,23.02
2018-09-30T16:17:25.254Z,26.27
2018-09-30T16:19:54.441Z,19.40
2018-09-30T16:22:22.723Z,21.95
2018-09-30T16:24:51.465Z,23.35
2018-09-30T16:27:19.719Z,14.30
2018-09-30T16:29:48.005Z,17.82
2018-09-30T16:32:17.423Z,20.68
2018-09-30T16:34:45.679Z,19.32
2018-09-30T16:37:13.996Z,19.05
2018-09-30T16:39:42.970Z,16.50
2018-09-30T16:42:11.355Z,13.22
2018-09-30T16:44:39.769Z,11.80
2018-09-30T16:47:13.748Z,18.62
2018-09-30T16:49:42.031Z,13.05
2018-09-30T16:52:10.359Z,12.28
2018-09-30T16:54:38.745Z,11.55
2018-09-30T16:57:07.051Z,10.45
2018-09-30T16:59:35.322Z,14.47
2018-09-30T17:02:03.920Z,11.85
2018-09-30T17:04:34.139Z,12.80
2018-09-30T17:07:02.479Z,12.93
2018-09-30T17:09:31.315Z,9.18
2018-09-30T17:11:59.863Z,14.33
2018-09-30T17:14:28.207Z,15.35
2018-09-30T17:16:56.755Z,21.05
2018-09-30T17:19:25.547Z,18.37
2018-09-30T17:21:53.890Z,27.60
2018-09-30T17:24:22.198Z,19.07
2018-09-30T17:26:50.554Z,15.95
2018-09-30T17:29:18.839Z,17.73
2018-09-30T17:31:47.265Z,11.97
2018-09-30T17:34:15.616Z,15.05
2018-09-30T17:36:43.955Z,18.65
2018-09-30T17:39:12.548Z,16.87
2018-09-30T17:41:40.832Z,21.90
2018-09-30T17:44:09.122Z,17.65
2018-09-30T17:46:37.601Z,26.52
2018-09-30T17:49:06.107Z,22.07
2018-09-30T17:51:34.371Z,21.85
2018-09-30T17:54:02.852Z,14.75
2018-09-30T17:56:31.124Z,17.15
2018-09-30T17:58:59.367Z,18.10
2018-09-30T18:01:28.520Z,16.07
2018-09-30T18:03:56.911Z,21.60
2018-09-30T18:06:25.191Z,30.68
2018-09-30T18:08:54.007Z,18.27
2018-09-30T18:11:22.374Z,18.48
2018-09-30T18:13:50.662Z,13.70
2018-09-30T18:16:19.022Z,16.48
2018-09-30T18:18:47.411Z,20.57
2018-09-30T18:21:16.724Z,18.02
2018-09-30T18:23:45.518Z,14.73
2018-09-30T18:26:13.835Z,14.15
2018-09-30T18:28:42.254Z,13.80
2018-09-30T18:31:11.108Z,17.10
2018-09-30T18:33:39.618Z,14.40
2018-09-30T18:36:07.967Z,19.48
2018-09-30T18:38:36.854Z,23.25
2018-09-30T18:41:05.140Z,20.05
2018-09-30T18:43:33.427Z,13.68
2018-09-30T18:46:03.432Z,21.80
2018-09-30T18:48:31.789Z,18.05
2018-09-30T18:51:00.323Z,18.77
2018-09-30T18:53:28.771Z,13.88
2018-09-30T18:55:57.121Z,15.38
2018-09-30T18:58:25.339Z,11.22
2018-09-30T19:00:54.124Z,14.07
2018-09-30T19:03:22.489Z,16.17
2018-09-30T19:05:50.736Z,20.72
2018-09-30T19:08:20.479Z,19.48
2018-09-30T19:10:48.779Z,24.55
2018-09-30T19:13:17.091Z,19.87
2018-09-30T19:15:45.568Z,25.02
2018-09-30T19:18:13.866Z,17.95
2018-09-30T19:20:42.188Z,19.00
2018-09-30T19:23:13.481Z,17.98
2018-09-30T19:25:42.807Z,18.67
2018-09-30T19:28:11.299Z,16.57
2018-09-30T19:30:40.785Z,14.15
2018-09-30T19:33:09.243Z,16.87
2018-09-30T19:35:37.630Z,16.42
2018-09-30T19:38:06.473Z,11.35
2018-09-30T19:40:34.822Z,13.08
2018-09-30T19:43:03.148Z,11.22
2018-09-30T19:45:32.540Z,13.25
2018-09-30T19:48:00.787Z,11.38
2018-09-30T19:50:29.289Z,19.35
2018-09-30T19:52:58.589Z,15.58
2018-09-30T19:55:26.849Z,16.55
2018-09-30T19:57:55.087Z,17.50
2018-09-30T20:00:23.720Z,14.23
2018-09-30T20:02:51.998Z,10.20
2018-09-30T20:05:22.412Z,11.63
2018-09-30T20:07:50.716Z,14.13
2018-09-30T20:10:19.208Z,15.32
2018-09-30T20:12:47.755Z,17.15
2018-09-30T20:15:16.119Z,16.82
2018-09-30T20:17:44.550Z,13.48
2018-09-30T20:20:13.299Z,9.13
2018-09-30T20:22:41.679Z,14.10
2018-09-30T20:25:09.930Z,14.63
2018-09-30T20:27:38.878Z,13.90
2018-09-30T20:30:07.190Z,9.13
2018-09-30T20:32:35.607Z,10.60
2018-09-30T20:35:04.198Z,15.32
2018-09-30T20:37:32.536Z,14.45
2018-09-30T20:40:00.782Z,17.55
2018-09-30T20:42:32.294Z,24.40
2018-09-30T20:45:00.625Z,18.67
2018-09-30T20:47:29.079Z,8.63
2018-09-30T20:49:57.479Z,11.80
2018-09-30T20:52:25.965Z,8.25
2018-09-30T20:54:54.289Z,9.98
2018-09-30T20:57:23.081Z,11.22
2018-09-30T20:59:51.359Z,13.60
2018-09-30T21:02:19.703Z,7.67
2018-09-30T21:04:48.684Z,9.05
2018-09-30T21:07:17.880Z,7.42
2018-09-30T21:09:46.219Z,6.35
2018-09-30T21:12:15.198Z,11.18
2018-09-30T21:14:43.528Z,9.08
2018-09-30T21:17:11.796Z,10.75
2018-09-30T21:19:40.086Z,7.83
2018-09-30T21:22:08.358Z,9.80
2018-09-30T21:24:36.675Z,7.60
2018-09-30T21:27:05.614Z,7.17
2018-09-30T21:29:34.017Z,7.80
2018-09-30T21:32:02.340Z,7.58
2018-09-30T21:34:31.126Z,9.48
2018-09-30T21:36:59.367Z,6.08
2018-09-30T21:39:27.597Z,5.72
2018-09-30T21:41:55.994Z,8.48
2018-09-30T21:44:24.243Z,8.53
2018-09-30T21:46:52.504Z,7.33
2018-09-30T21:49:21.707Z,5.33
2018-09-30T21:51:50.132Z,5.47
2018-09-30T21:54:18.570Z,6.10
2018-09-30T21:56:46.929Z,7.92
2018-09-30T21:59:15.284Z,6.20
2018-09-30T22:01:43.666Z,5.35
2018-09-30T22:04:12.683Z,7.40
2018-09-30T22:06:40.942Z,9.05
2018-09-30T22:09:09.990Z,7.28
2018-09-30T22:11:38.590Z,4.78
2018-09-30T22:14:06.878Z,5.03
2018-09-30T22:16:35.109Z,5.62
2018-09-30T22:19:03.690Z,6.33
2018-09-30T22:21:31.950Z,5.70
2018-09-30T22:24:00.195Z,4.65
2018-09-30T22:26:29.348Z,5.05
2018-09-30T22:28:57.596Z,4.85
2018-09-30T22:31:25.838Z,4.60
2018-09-30T22:33:54.366Z,5.72
2018-09-30T22:36:22.831Z,5.30
2018-09-30T22:38:51.054Z,6.20
2018-09-30T22:41:19.312Z,4.20
2018-09-30T22:43:47.547Z,5.90
2018-09-30T22:46:15.975Z,6.67
2018-09-30T22:48:44.649Z,4.22
2018-09-30T22:51:12.911Z,3.15
2018-09-30T22:53:41.165Z,5.25
2018-09-30T22:56:09.689Z,6.28
2018-09-30T22:58:38.027Z,4.33
2018-09-30T23:01:06.322Z,3.83
2018-09-30T23:03:36.053Z,6.70
2018-09-30T23:06:04.270Z,4.53
2018-09-30T23:08:32.502Z,5.35
2018-09-30T23:11:01.604Z,4.03
2018-09-30T23:13:29.881Z,4.45
2018-09-30T23:15:58.118Z,3.85
2018-09-30T23:18:26.510Z,3.62
2018-09-30T23:20:54.761Z,3.98
2018-09-30T23:23:23.011Z,3.90
2018-09-30T23:25:51.568Z,6.60
2018-09-30T23:28:19.903Z,4.37
2018-09-30T23:30:48.138Z,5.53
2018-09-30T23:33:16.515Z,4.45
2018-09-30T23:35:44.755Z,5.45
2018-09-30T23:38:13.000Z,3.55
2018-09-30T23:40:41.530Z,5.22
2018-09-30T23:43:09.898Z,3.60
2018-09-30T23:45:38.148Z,3.50
2018-09-30T23:48:06.427Z,2.83
2018-09-30T23:50:34.760Z,2.83
2018-09-30T23:53:03.003Z,2.65
2018-09-30T23:55:31.701Z,4.10
2018-09-30T23:58:09.494Z,4.20
